sensor_id;sensor_type;location;lat;lon;timestamp;P1;durP1;ratioP1;P2;durP2;ratioP2
22754;SDS011;11544;42.020;23.094;2022-11-04T00:01:51;9.18;;;4.60;;
22754;SDS011;11544;42.020;23.094;2022-11-04T00:04:18;10.43;;;4.13;;
22754;SDS011;11544;42.020;23.094;2022-11-04T00:06:45;9.07;;;3.78;;
22754;SDS011;11544;42.020;23.094;2022-11-04T00:09:12;9.98;;;4.30;;
22754;SDS011;11544;42.020;23.094;2022-11-04T00:11:42;9.93;;;4.05;;
22754;SDS011;11544;42.020;23.094;2022-11-04T00:14:27;10.60;;;4.25;;
22754;SDS011;11544;42.020;23.094;2022-11-04T00:16:54;10.75;;;4.20;;
22754;SDS011;11544;42.020;23.094;2022-11-04T00:19:38;8.55;;;4.75;;
22754;SDS011;11544;42.020;23.094;2022-11-04T00:22:23;7.70;;;4.10;;
22754;SDS011;11544;42.020;23.094;2022-11-04T00:25:08;9.80;;;4.38;;
22754;SDS011;11544;42.020;23.094;2022-11-04T00:28:08;11.25;;;4.93;;
22754;SDS011;11544;42.020;23.094;2022-11-04T00:30:54;12.35;;;4.47;;
22754;SDS011;11544;42.020;23.094;2022-11-04T00:33:21;13.85;;;6.15;;
22754;SDS011;11544;42.020;23.094;2022-11-04T00:35:50;13.68;;;6.55;;
22754;SDS011;11544;42.020;23.094;2022-11-04T00:38:17;10.68;;;5.88;;
22754;SDS011;11544;42.020;23.094;2022-11-04T00:40:43;12.98;;;5.95;;
22754;SDS011;11544;42.020;23.094;2022-11-04T00:43:09;17.55;;;5.90;;
22754;SDS011;11544;42.020;23.094;2022-11-04T00:45:36;15.30;;;6.20;;
22754;SDS011;11544;42.020;23.094;2022-11-04T00:48:01;11.95;;;5.40;;
22754;SDS011;11544;42.020;23.094;2022-11-04T00:50:27;10.95;;;5.30;;
22754;SDS011;11544;42.020;23.094;2022-11-04T00:53:00;12.25;;;6.18;;
22754;SDS011;11544;42.020;23.094;2022-11-04T00:55:26;13.13;;;6.05;;
22754;SDS011;11544;42.020;23.094;2022-11-04T00:57:52;14.32;;;5.18;;
22754;SDS011;11544;42.020;23.094;2022-11-04T01:00:18;14.50;;;6.68;;
22754;SDS011;11544;42.020;23.094;2022-11-04T01:02:44;8.70;;;4.72;;
22754;SDS011;11544;42.020;23.094;2022-11-04T01:05:10;12.07;;;5.53;;
22754;SDS011;11544;42.020;23.094;2022-11-04T01:07:37;12.68;;;5.03;;
22754;SDS011;11544;42.020;23.094;2022-11-04T01:10:03;11.05;;;5.07;;
22754;SDS011;11544;42.020;23.094;2022-11-04T01:12:30;9.35;;;5.32;;
22754;SDS011;11544;42.020;23.094;2022-11-04T01:14:56;7.88;;;4.32;;
22754;SDS011;11544;42.020;23.094;2022-11-04T01:17:22;12.85;;;5.00;;
22754;SDS011;11544;42.020;23.094;2022-11-04T01:19:47;18.15;;;5.63;;
22754;SDS011;11544;42.020;23.094;2022-11-04T01:22:13;13.73;;;5.60;;
22754;SDS011;11544;42.020;23.094;2022-11-04T01:24:39;16.80;;;5.03;;
22754;SDS011;11544;42.020;23.094;2022-11-04T01:27:05;13.48;;;5.82;;
22754;SDS011;11544;42.020;23.094;2022-11-04T01:29:30;10.10;;;5.53;;
22754;SDS011;11544;42.020;23.094;2022-11-04T01:31:56;14.93;;;5.68;;
22754;SDS011;11544;42.020;23.094;2022-11-04T01:34:22;11.68;;;5.18;;
22754;SDS011;11544;42.020;23.094;2022-11-04T01:36:47;13.18;;;5.10;;
22754;SDS011;11544;42.020;23.094;2022-11-04T01:39:13;12.27;;;4.80;;
22754;SDS011;11544;42.020;23.094;2022-11-04T01:41:39;11.85;;;5.78;;
22754;SDS011;11544;42.020;23.094;2022-11-04T01:49:56;17.60;;;5.90;;
22754;SDS011;11544;42.020;23.094;2022-11-04T01:52:29;16.70;;;5.55;;
22754;SDS011;11544;42.020;23.094;2022-11-04T01:55:03;16.23;;;6.22;;
22754;SDS011;11544;42.020;23.094;2022-11-04T01:57:35;14.65;;;6.90;;
22754;SDS011;11544;42.020;23.094;2022-11-04T02:00:06;16.65;;;6.35;;
22754;SDS011;11544;42.020;23.094;2022-11-04T02:05:27;12.68;;;6.15;;
22754;SDS011;11544;42.020;23.094;2022-11-04T02:07:54;16.13;;;6.07;;
22754;SDS011;11544;42.020;23.094;2022-11-04T02:10:24;14.75;;;6.75;;
22754;SDS011;11544;42.020;23.094;2022-11-04T02:12:51;14.90;;;6.00;;
22754;SDS011;11544;42.020;23.094;2022-11-04T02:15:19;14.68;;;6.10;;
22754;SDS011;11544;42.020;23.094;2022-11-04T02:23:54;24.77;;;7.90;;
22754;SDS011;11544;42.020;23.094;2022-11-04T02:37:30;20.73;;;8.40;;
22754;SDS011;11544;42.020;23.094;2022-11-04T02:45:29;25.10;;;7.55;;
22754;SDS011;11544;42.020;23.094;2022-11-04T02:48:07;22.45;;;7.47;;
22754;SDS011;11544;42.020;23.094;2022-11-04T02:53:13;20.08;;;7.00;;
22754;SDS011;11544;42.020;23.094;2022-11-04T02:55:44;18.42;;;7.50;;
22754;SDS011;11544;42.020;23.094;2022-11-04T02:58:14;26.08;;;6.90;;
22754;SDS011;11544;42.020;23.094;2022-11-04T03:00:52;25.25;;;8.18;;
22754;SDS011;11544;42.020;23.094;2022-11-04T03:03:21;25.80;;;8.18;;
22754;SDS011;11544;42.020;23.094;2022-11-04T03:05:53;24.40;;;8.18;;
22754;SDS011;11544;42.020;23.094;2022-11-04T03:08:26;22.90;;;7.28;;
22754;SDS011;11544;42.020;23.094;2022-11-04T03:11:03;16.05;;;7.07;;
22754;SDS011;11544;42.020;23.094;2022-11-04T03:14:09;23.23;;;7.53;;
22754;SDS011;11544;42.020;23.094;2022-11-04T03:16:51;17.67;;;6.32;;
22754;SDS011;11544;42.020;23.094;2022-11-04T03:19:35;14.07;;;6.68;;
22754;SDS011;11544;42.020;23.094;2022-11-04T03:22:10;15.60;;;7.70;;
22754;SDS011;11544;42.020;23.094;2022-11-04T03:24:39;16.60;;;6.78;;
22754;SDS011;11544;42.020;23.094;2022-11-04T03:27:13;23.50;;;6.82;;
22754;SDS011;11544;42.020;23.094;2022-11-04T03:30:28;14.35;;;4.82;;
22754;SDS011;11544;42.020;23.094;2022-11-04T03:33:05;15.38;;;5.90;;
22754;SDS011;11544;42.020;23.094;2022-11-04T03:35:39;17.58;;;6.93;;
22754;SDS011;11544;42.020;23.094;2022-11-04T03:38:04;17.52;;;6.85;;
22754;SDS011;11544;42.020;23.094;2022-11-04T03:40:30;15.65;;;6.60;;
22754;SDS011;11544;42.020;23.094;2022-11-04T03:43:01;21.77;;;8.07;;
22754;SDS011;11544;42.020;23.094;2022-11-04T03:45:35;19.38;;;7.22;;
22754;SDS011;11544;42.020;23.094;2022-11-04T03:48:01;22.70;;;7.50;;
22754;SDS011;11544;42.020;23.094;2022-11-04T03:50:28;25.33;;;7.75;;
22754;SDS011;11544;42.020;23.094;2022-11-04T03:52:55;31.85;;;8.52;;
22754;SDS011;11544;42.020;23.094;2022-11-04T03:55:23;21.40;;;7.85;;
22754;SDS011;11544;42.020;23.094;2022-11-04T03:58:02;19.15;;;7.95;;
22754;SDS011;11544;42.020;23.094;2022-11-04T04:00:44;27.13;;;8.50;;
22754;SDS011;11544;42.020;23.094;2022-11-04T04:07:18;30.25;;;8.63;;
22754;SDS011;11544;42.020;23.094;2022-11-04T04:10:48;30.90;;;8.98;;
22754;SDS011;11544;42.020;23.094;2022-11-04T04:13:13;28.20;;;9.02;;
22754;SDS011;11544;42.020;23.094;2022-11-04T04:16:00;29.52;;;9.77;;
22754;SDS011;11544;42.020;23.094;2022-11-04T04:18:34;19.92;;;8.40;;
22754;SDS011;11544;42.020;23.094;2022-11-04T04:21:08;26.05;;;8.15;;
22754;SDS011;11544;42.020;23.094;2022-11-04T04:23:39;39.45;;;8.65;;
22754;SDS011;11544;42.020;23.094;2022-11-04T04:26:26;23.13;;;8.93;;
22754;SDS011;11544;42.020;23.094;2022-11-04T04:29:13;26.35;;;8.35;;
22754;SDS011;11544;42.020;23.094;2022-11-04T04:31:45;29.77;;;8.32;;
22754;SDS011;11544;42.020;23.094;2022-11-04T04:34:21;28.48;;;9.25;;
22754;SDS011;11544;42.020;23.094;2022-11-04T04:37:00;34.55;;;9.60;;
22754;SDS011;11544;42.020;23.094;2022-11-04T04:40:14;29.38;;;9.63;;
22754;SDS011;11544;42.020;23.094;2022-11-04T04:42:41;37.72;;;10.90;;
22754;SDS011;11544;42.020;23.094;2022-11-04T04:45:30;24.33;;;8.88;;
22754;SDS011;11544;42.020;23.094;2022-11-04T04:48:02;29.05;;;8.68;;
22754;SDS011;11544;42.020;23.094;2022-11-04T04:50:36;26.02;;;7.50;;
22754;SDS011;11544;42.020;23.094;2022-11-04T04:53:12;28.17;;;8.43;;
22754;SDS011;11544;42.020;23.094;2022-11-04T04:55:38;31.30;;;7.85;;
22754;SDS011;11544;42.020;23.094;2022-11-04T04:58:04;36.17;;;11.23;;
22754;SDS011;11544;42.020;23.094;2022-11-04T05:00:30;30.42;;;9.35;;
22754;SDS011;11544;42.020;23.094;2022-11-04T05:02:57;35.47;;;9.68;;
22754;SDS011;11544;42.020;23.094;2022-11-04T05:05:23;27.83;;;9.52;;
22754;SDS011;11544;42.020;23.094;2022-11-04T05:07:48;29.63;;;9.85;;
22754;SDS011;11544;42.020;23.094;2022-11-04T05:10:14;34.45;;;9.98;;
22754;SDS011;11544;42.020;23.094;2022-11-04T05:12:42;36.15;;;10.13;;
22754;SDS011;11544;42.020;23.094;2022-11-04T05:15:26;28.77;;;10.30;;
22754;SDS011;11544;42.020;23.094;2022-11-04T05:17:57;34.75;;;9.63;;
22754;SDS011;11544;42.020;23.094;2022-11-04T05:20:25;27.42;;;9.25;;
22754;SDS011;11544;42.020;23.094;2022-11-04T05:22:51;30.58;;;10.20;;
22754;SDS011;11544;42.020;23.094;2022-11-04T05:25:18;26.55;;;9.25;;
22754;SDS011;11544;42.020;23.094;2022-11-04T05:27:44;30.48;;;10.48;;
22754;SDS011;11544;42.020;23.094;2022-11-04T05:30:09;34.13;;;10.00;;
22754;SDS011;11544;42.020;23.094;2022-11-04T05:32:35;41.90;;;13.18;;
22754;SDS011;11544;42.020;23.094;2022-11-04T05:35:01;29.27;;;11.23;;
22754;SDS011;11544;42.020;23.094;2022-11-04T05:37:27;31.95;;;12.50;;
22754;SDS011;11544;42.020;23.094;2022-11-04T05:39:53;25.10;;;10.63;;
22754;SDS011;11544;42.020;23.094;2022-11-04T05:42:18;24.42;;;9.68;;
22754;SDS011;11544;42.020;23.094;2022-11-04T05:44:44;28.77;;;10.30;;
22754;SDS011;11544;42.020;23.094;2022-11-04T05:47:10;32.13;;;10.18;;
22754;SDS011;11544;42.020;23.094;2022-11-04T05:49:35;25.55;;;9.75;;
22754;SDS011;11544;42.020;23.094;2022-11-04T05:52:01;28.75;;;9.90;;
22754;SDS011;11544;42.020;23.094;2022-11-04T05:54:27;25.60;;;9.63;;
22754;SDS011;11544;42.020;23.094;2022-11-04T05:56:52;26.05;;;9.43;;
22754;SDS011;11544;42.020;23.094;2022-11-04T05:59:18;27.23;;;9.60;;
22754;SDS011;11544;42.020;23.094;2022-11-04T06:01:44;25.23;;;9.82;;
22754;SDS011;11544;42.020;23.094;2022-11-04T06:04:14;23.83;;;9.45;;
22754;SDS011;11544;42.020;23.094;2022-11-04T06:06:41;23.95;;;9.38;;
22754;SDS011;11544;42.020;23.094;2022-11-04T06:09:07;24.50;;;8.40;;
22754;SDS011;11544;42.020;23.094;2022-11-04T06:11:33;18.90;;;8.57;;
22754;SDS011;11544;42.020;23.094;2022-11-04T06:14:00;29.27;;;10.20;;
22754;SDS011;11544;42.020;23.094;2022-11-04T06:16:26;20.52;;;9.15;;
22754;SDS011;11544;42.020;23.094;2022-11-04T06:18:52;31.15;;;9.48;;
22754;SDS011;11544;42.020;23.094;2022-11-04T06:21:25;33.80;;;11.05;;
22754;SDS011;11544;42.020;23.094;2022-11-04T06:23:53;29.15;;;10.25;;
22754;SDS011;11544;42.020;23.094;2022-11-04T06:26:24;22.35;;;10.60;;
22754;SDS011;11544;42.020;23.094;2022-11-04T06:28:51;20.10;;;8.60;;
22754;SDS011;11544;42.020;23.094;2022-11-04T06:31:17;39.38;;;10.30;;
22754;SDS011;11544;42.020;23.094;2022-11-04T06:33:43;23.50;;;10.05;;
22754;SDS011;11544;42.020;23.094;2022-11-04T06:36:11;29.38;;;11.80;;
22754;SDS011;11544;42.020;23.094;2022-11-04T06:38:38;32.53;;;11.10;;
22754;SDS011;11544;42.020;23.094;2022-11-04T06:41:08;32.65;;;12.60;;
22754;SDS011;11544;42.020;23.094;2022-11-04T06:43:36;23.52;;;10.60;;
22754;SDS011;11544;42.020;23.094;2022-11-04T06:46:02;22.73;;;10.38;;
22754;SDS011;11544;42.020;23.094;2022-11-04T06:48:29;24.77;;;9.02;;
22754;SDS011;11544;42.020;23.094;2022-11-04T06:50:55;27.02;;;12.25;;
22754;SDS011;11544;42.020;23.094;2022-11-04T06:53:28;25.48;;;9.45;;
22754;SDS011;11544;42.020;23.094;2022-11-04T06:55:59;23.80;;;9.75;;
22754;SDS011;11544;42.020;23.094;2022-11-04T06:58:28;25.48;;;9.65;;
22754;SDS011;11544;42.020;23.094;2022-11-04T07:00:53;39.00;;;10.68;;
22754;SDS011;11544;42.020;23.094;2022-11-04T07:03:19;40.90;;;9.77;;
22754;SDS011;11544;42.020;23.094;2022-11-04T07:05:45;40.45;;;10.95;;
22754;SDS011;11544;42.020;23.094;2022-11-04T07:08:11;26.55;;;10.95;;
22754;SDS011;11544;42.020;23.094;2022-11-04T07:10:37;31.23;;;11.73;;
22754;SDS011;11544;42.020;23.094;2022-11-04T07:13:02;16.83;;;10.15;;
22754;SDS011;11544;42.020;23.094;2022-11-04T07:15:28;24.92;;;11.27;;
22754;SDS011;11544;42.020;23.094;2022-11-04T07:17:54;17.42;;;9.90;;
22754;SDS011;11544;42.020;23.094;2022-11-04T07:20:19;34.05;;;11.07;;
22754;SDS011;11544;42.020;23.094;2022-11-04T07:22:45;27.40;;;11.75;;
22754;SDS011;11544;42.020;23.094;2022-11-04T07:25:12;32.63;;;14.65;;
22754;SDS011;11544;42.020;23.094;2022-11-04T07:27:39;29.35;;;14.82;;
22754;SDS011;11544;42.020;23.094;2022-11-04T07:30:06;29.85;;;13.88;;
22754;SDS011;11544;42.020;23.094;2022-11-04T07:32:33;20.25;;;11.60;;
22754;SDS011;11544;42.020;23.094;2022-11-04T07:34:58;26.98;;;12.23;;
22754;SDS011;11544;42.020;23.094;2022-11-04T07:37:24;22.70;;;11.35;;
22754;SDS011;11544;42.020;23.094;2022-11-04T07:39:50;23.80;;;9.50;;
22754;SDS011;11544;42.020;23.094;2022-11-04T07:42:15;24.27;;;10.57;;
22754;SDS011;11544;42.020;23.094;2022-11-04T07:44:49;20.52;;;10.52;;
22754;SDS011;11544;42.020;23.094;2022-11-04T07:47:14;18.67;;;9.40;;
22754;SDS011;11544;42.020;23.094;2022-11-04T07:49:40;20.55;;;9.73;;
22754;SDS011;11544;42.020;23.094;2022-11-04T07:52:06;27.40;;;10.07;;
22754;SDS011;11544;42.020;23.094;2022-11-04T07:54:35;27.05;;;10.10;;
22754;SDS011;11544;42.020;23.094;2022-11-04T07:57:00;25.58;;;11.48;;
22754;SDS011;11544;42.020;23.094;2022-11-04T07:59:26;22.00;;;11.13;;
22754;SDS011;11544;42.020;23.094;2022-11-04T08:01:52;24.52;;;10.57;;
22754;SDS011;11544;42.020;23.094;2022-11-04T08:04:18;18.40;;;10.07;;
22754;SDS011;11544;42.020;23.094;2022-11-04T08:06:44;24.10;;;10.27;;
22754;SDS011;11544;42.020;23.094;2022-11-04T08:09:09;21.90;;;10.10;;
22754;SDS011;11544;42.020;23.094;2022-11-04T08:11:35;16.65;;;10.60;;
22754;SDS011;11544;42.020;23.094;2022-11-04T08:14:04;25.90;;;11.20;;
22754;SDS011;11544;42.020;23.094;2022-11-04T08:16:29;22.75;;;10.98;;
22754;SDS011;11544;42.020;23.094;2022-11-04T08:18:55;22.75;;;10.07;;
22754;SDS011;11544;42.020;23.094;2022-11-04T08:21:26;22.15;;;10.73;;
22754;SDS011;11544;42.020;23.094;2022-11-04T08:23:55;25.92;;;11.57;;
22754;SDS011;11544;42.020;23.094;2022-11-04T08:26:21;23.50;;;11.55;;
22754;SDS011;11544;42.020;23.094;2022-11-04T08:28:50;22.20;;;10.43;;
22754;SDS011;11544;42.020;23.094;2022-11-04T08:31:17;17.90;;;10.45;;
22754;SDS011;11544;42.020;23.094;2022-11-04T08:33:48;23.95;;;11.50;;
22754;SDS011;11544;42.020;23.094;2022-11-04T08:36:19;25.60;;;11.18;;
22754;SDS011;11544;42.020;23.094;2022-11-04T08:38:47;22.70;;;11.50;;
22754;SDS011;11544;42.020;23.094;2022-11-04T08:41:14;22.88;;;11.93;;
22754;SDS011;11544;42.020;23.094;2022-11-04T08:43:42;23.80;;;11.15;;
22754;SDS011;11544;42.020;23.094;2022-11-04T08:46:08;25.63;;;10.88;;
22754;SDS011;11544;42.020;23.094;2022-11-04T08:48:35;18.20;;;10.32;;
22754;SDS011;11544;42.020;23.094;2022-11-04T08:51:03;18.38;;;9.18;;
22754;SDS011;11544;42.020;23.094;2022-11-04T08:53:30;25.42;;;10.80;;
22754;SDS011;11544;42.020;23.094;2022-11-04T08:55:56;20.38;;;11.00;;
22754;SDS011;11544;42.020;23.094;2022-11-04T08:58:22;20.58;;;10.27;;
22754;SDS011;11544;42.020;23.094;2022-11-04T09:00:49;18.58;;;9.77;;
22754;SDS011;11544;42.020;23.094;2022-11-04T09:03:16;21.83;;;10.50;;
22754;SDS011;11544;42.020;23.094;2022-11-04T09:05:42;19.92;;;9.88;;
22754;SDS011;11544;42.020;23.094;2022-11-04T09:08:16;18.90;;;9.40;;
22754;SDS011;11544;42.020;23.094;2022-11-04T09:10:43;19.92;;;9.32;;
22754;SDS011;11544;42.020;23.094;2022-11-04T09:13:11;18.63;;;9.55;;
22754;SDS011;11544;42.020;23.094;2022-11-04T09:15:38;19.30;;;9.57;;
22754;SDS011;11544;42.020;23.094;2022-11-04T09:18:04;13.82;;;7.63;;
22754;SDS011;11544;42.020;23.094;2022-11-04T09:20:30;20.85;;;8.73;;
22754;SDS011;11544;42.020;23.094;2022-11-04T09:22:56;16.70;;;8.18;;
22754;SDS011;11544;42.020;23.094;2022-11-04T09:25:22;22.60;;;9.93;;
22754;SDS011;11544;42.020;23.094;2022-11-04T09:27:48;18.38;;;10.00;;
22754;SDS011;11544;42.020;23.094;2022-11-04T09:30:14;20.25;;;8.50;;
22754;SDS011;11544;42.020;23.094;2022-11-04T09:32:45;17.73;;;8.73;;
22754;SDS011;11544;42.020;23.094;2022-11-04T09:35:11;16.88;;;8.45;;
22754;SDS011;11544;42.020;23.094;2022-11-04T09:37:40;13.73;;;7.72;;
22754;SDS011;11544;42.020;23.094;2022-11-04T09:40:09;12.95;;;7.18;;
22754;SDS011;11544;42.020;23.094;2022-11-04T09:45:11;15.10;;;7.00;;
22754;SDS011;11544;42.020;23.094;2022-11-04T09:47:41;15.90;;;6.63;;
22754;SDS011;11544;42.020;23.094;2022-11-04T09:50:15;10.32;;;6.50;;
22754;SDS011;11544;42.020;23.094;2022-11-04T09:53:00;21.02;;;6.50;;
22754;SDS011;11544;42.020;23.094;2022-11-04T09:55:38;8.68;;;5.53;;
22754;SDS011;11544;42.020;23.094;2022-11-04T09:58:06;9.02;;;5.70;;
22754;SDS011;11544;42.020;23.094;2022-11-04T10:00:36;10.57;;;5.32;;
22754;SDS011;11544;42.020;23.094;2022-11-04T10:11:27;11.00;;;5.85;;
22754;SDS011;11544;42.020;23.094;2022-11-04T10:19:53;13.93;;;5.85;;
22754;SDS011;11544;42.020;23.094;2022-11-04T10:22:43;7.88;;;5.07;;
22754;SDS011;11544;42.020;23.094;2022-11-04T10:25:21;9.52;;;5.40;;
22754;SDS011;11544;42.020;23.094;2022-11-04T10:27:51;11.27;;;6.50;;
22754;SDS011;11544;42.020;23.094;2022-11-04T10:30:18;12.75;;;6.78;;
22754;SDS011;11544;42.020;23.094;2022-11-04T10:38:21;13.13;;;5.95;;
22754;SDS011;11544;42.020;23.094;2022-11-04T10:41:04;14.52;;;5.88;;
22754;SDS011;11544;42.020;23.094;2022-11-04T10:43:54;11.07;;;5.55;;
22754;SDS011;11544;42.020;23.094;2022-11-04T10:46:36;14.45;;;6.53;;
22754;SDS011;11544;42.020;23.094;2022-11-04T10:51:51;9.52;;;5.88;;
22754;SDS011;11544;42.020;23.094;2022-11-04T10:54:18;9.30;;;5.75;;
22754;SDS011;11544;42.020;23.094;2022-11-04T10:56:46;10.70;;;5.68;;
22754;SDS011;11544;42.020;23.094;2022-11-04T11:01:57;8.77;;;5.60;;
22754;SDS011;11544;42.020;23.094;2022-11-04T11:04:31;9.50;;;5.28;;
22754;SDS011;11544;42.020;23.094;2022-11-04T11:06:59;9.75;;;5.15;;
22754;SDS011;11544;42.020;23.094;2022-11-04T11:09:31;12.27;;;5.05;;
22754;SDS011;11544;42.020;23.094;2022-11-04T11:14:31;10.32;;;5.05;;
22754;SDS011;11544;42.020;23.094;2022-11-04T11:19:44;13.00;;;5.72;;
22754;SDS011;11544;42.020;23.094;2022-11-04T11:22:33;12.60;;;5.55;;
22754;SDS011;11544;42.020;23.094;2022-11-04T11:27:47;10.95;;;5.63;;
22754;SDS011;11544;42.020;23.094;2022-11-04T11:30:58;10.23;;;5.10;;
22754;SDS011;11544;42.020;23.094;2022-11-04T11:33:16;8.63;;;4.85;;
22754;SDS011;11544;42.020;23.094;2022-11-04T11:36:06;8.77;;;5.10;;
22754;SDS011;11544;42.020;23.094;2022-11-04T11:44:40;8.25;;;5.45;;
22754;SDS011;11544;42.020;23.094;2022-11-04T11:52:44;10.90;;;5.28;;
22754;SDS011;11544;42.020;23.094;2022-11-04T11:55:15;9.13;;;4.95;;
22754;SDS011;11544;42.020;23.094;2022-11-04T12:00:41;10.60;;;5.10;;
22754;SDS011;11544;42.020;23.094;2022-11-04T12:04:00;9.45;;;4.93;;
22754;SDS011;11544;42.020;23.094;2022-11-04T12:17:06;9.15;;;4.97;;
22754;SDS011;11544;42.020;23.094;2022-11-04T12:22:46;7.80;;;4.18;;
22754;SDS011;11544;42.020;23.094;2022-11-04T12:25:31;8.57;;;4.38;;
22754;SDS011;11544;42.020;23.094;2022-11-04T12:31:19;9.48;;;4.40;;
22754;SDS011;11544;42.020;23.094;2022-11-04T12:36:48;12.13;;;4.70;;
22754;SDS011;11544;42.020;23.094;2022-11-04T12:39:37;10.88;;;4.97;;
22754;SDS011;11544;42.020;23.094;2022-11-04T12:45:16;10.48;;;5.45;;
22754;SDS011;11544;42.020;23.094;2022-11-04T12:47:53;10.90;;;5.25;;
22754;SDS011;11544;42.020;23.094;2022-11-04T12:50:31;8.48;;;5.13;;
22754;SDS011;11544;42.020;23.094;2022-11-04T12:56:08;11.98;;;5.30;;
22754;SDS011;11544;42.020;23.094;2022-11-04T13:01:16;16.55;;;5.70;;
22754;SDS011;11544;42.020;23.094;2022-11-04T13:06:56;8.98;;;5.72;;
22754;SDS011;11544;42.020;23.094;2022-11-04T13:12:10;9.63;;;5.43;;
22754;SDS011;11544;42.020;23.094;2022-11-04T13:14:50;12.32;;;6.00;;
22754;SDS011;11544;42.020;23.094;2022-11-04T13:17:34;10.50;;;6.38;;
22754;SDS011;11544;42.020;23.094;2022-11-04T13:23:07;10.10;;;6.03;;
22754;SDS011;11544;42.020;23.094;2022-11-04T13:25:42;10.05;;;6.38;;
22754;SDS011;11544;42.020;23.094;2022-11-04T13:28:18;12.65;;;6.57;;
22754;SDS011;11544;42.020;23.094;2022-11-04T13:33:48;15.98;;;7.53;;
22754;SDS011;11544;42.020;23.094;2022-11-04T13:39:23;10.82;;;6.47;;
22754;SDS011;11544;42.020;23.094;2022-11-04T13:44:44;14.45;;;6.53;;
22754;SDS011;11544;42.020;23.094;2022-11-04T13:47:14;15.68;;;7.10;;
22754;SDS011;11544;42.020;23.094;2022-11-04T13:49:47;13.43;;;7.13;;
22754;SDS011;11544;42.020;23.094;2022-11-04T13:52:20;11.10;;;6.90;;
22754;SDS011;11544;42.020;23.094;2022-11-04T13:54:52;14.43;;;6.85;;
22754;SDS011;11544;42.020;23.094;2022-11-04T13:57:33;12.50;;;7.07;;
22754;SDS011;11544;42.020;23.094;2022-11-04T14:00:20;12.05;;;7.20;;
22754;SDS011;11544;42.020;23.094;2022-11-04T14:02:48;12.45;;;6.82;;
22754;SDS011;11544;42.020;23.094;2022-11-04T14:21:09;13.23;;;7.75;;
22754;SDS011;11544;42.020;23.094;2022-11-04T14:23:35;13.57;;;7.80;;
22754;SDS011;11544;42.020;23.094;2022-11-04T14:26:09;13.38;;;7.18;;
22754;SDS011;11544;42.020;23.094;2022-11-04T14:28:38;13.35;;;6.60;;
22754;SDS011;11544;42.020;23.094;2022-11-04T14:31:08;12.38;;;7.47;;
22754;SDS011;11544;42.020;23.094;2022-11-04T14:33:53;12.98;;;6.95;;
22754;SDS011;11544;42.020;23.094;2022-11-04T14:46:42;15.15;;;7.63;;
22754;SDS011;11544;42.020;23.094;2022-11-04T14:52:04;11.13;;;7.57;;
22754;SDS011;11544;42.020;23.094;2022-11-04T14:54:44;15.52;;;7.55;;
22754;SDS011;11544;42.020;23.094;2022-11-04T14:57:12;15.55;;;8.10;;
22754;SDS011;11544;42.020;23.094;2022-11-04T14:59:49;13.55;;;7.68;;
22754;SDS011;11544;42.020;23.094;2022-11-04T15:02:27;13.40;;;8.30;;
22754;SDS011;11544;42.020;23.094;2022-11-04T15:05:00;18.75;;;8.73;;
22754;SDS011;11544;42.020;23.094;2022-11-04T15:07:37;17.20;;;9.07;;
22754;SDS011;11544;42.020;23.094;2022-11-04T15:10:18;17.17;;;8.43;;
22754;SDS011;11544;42.020;23.094;2022-11-04T15:12:56;15.68;;;10.27;;
22754;SDS011;11544;42.020;23.094;2022-11-04T15:15:31;16.60;;;8.95;;
22754;SDS011;11544;42.020;23.094;2022-11-04T15:18:13;16.40;;;9.43;;
22754;SDS011;11544;42.020;23.094;2022-11-04T15:20:48;13.63;;;9.13;;
22754;SDS011;11544;42.020;23.094;2022-11-04T15:23:32;16.50;;;8.43;;
22754;SDS011;11544;42.020;23.094;2022-11-04T15:26:05;12.90;;;7.82;;
22754;SDS011;11544;42.020;23.094;2022-11-04T15:28:32;14.90;;;8.32;;
22754;SDS011;11544;42.020;23.094;2022-11-04T15:31:04;19.58;;;9.98;;
22754;SDS011;11544;42.020;23.094;2022-11-04T15:33:31;15.75;;;10.45;;
22754;SDS011;11544;42.020;23.094;2022-11-04T15:36:03;17.02;;;9.45;;
22754;SDS011;11544;42.020;23.094;2022-11-04T15:38:29;17.60;;;9.38;;
22754;SDS011;11544;42.020;23.094;2022-11-04T15:40:56;14.27;;;9.18;;
22754;SDS011;11544;42.020;23.094;2022-11-04T15:43:43;16.45;;;8.73;;
22754;SDS011;11544;42.020;23.094;2022-11-04T15:46:19;14.23;;;7.97;;
22754;SDS011;11544;42.020;23.094;2022-11-04T15:48:59;14.52;;;9.45;;
22754;SDS011;11544;42.020;23.094;2022-11-04T15:51:27;14.80;;;9.60;;
22754;SDS011;11544;42.020;23.094;2022-11-04T15:54:01;13.82;;;8.20;;
22754;SDS011;11544;42.020;23.094;2022-11-04T15:56:34;17.13;;;9.70;;
22754;SDS011;11544;42.020;23.094;2022-11-04T15:59:07;18.77;;;10.75;;
22754;SDS011;11544;42.020;23.094;2022-11-04T16:01:45;20.08;;;8.80;;
22754;SDS011;11544;42.020;23.094;2022-11-04T16:04:13;15.00;;;8.85;;
22754;SDS011;11544;42.020;23.094;2022-11-04T16:06:41;13.27;;;8.35;;
22754;SDS011;11544;42.020;23.094;2022-11-04T16:11:35;16.17;;;8.13;;
22754;SDS011;11544;42.020;23.094;2022-11-04T16:14:18;13.88;;;9.20;;
22754;SDS011;11544;42.020;23.094;2022-11-04T16:16:47;13.70;;;9.05;;
22754;SDS011;11544;42.020;23.094;2022-11-04T16:19:16;17.02;;;7.55;;
22754;SDS011;11544;42.020;23.094;2022-11-04T16:21:47;13.55;;;7.63;;
22754;SDS011;11544;42.020;23.094;2022-11-04T16:24:23;14.45;;;8.18;;
22754;SDS011;11544;42.020;23.094;2022-11-04T16:26:53;16.17;;;10.60;;
22754;SDS011;11544;42.020;23.094;2022-11-04T16:29:22;15.13;;;9.68;;
22754;SDS011;11544;42.020;23.094;2022-11-04T16:34:47;16.65;;;10.30;;
22754;SDS011;11544;42.020;23.094;2022-11-04T16:37:14;16.95;;;9.98;;
22754;SDS011;11544;42.020;23.094;2022-11-04T16:39:41;18.52;;;9.68;;
22754;SDS011;11544;42.020;23.094;2022-11-04T16:42:08;14.38;;;8.82;;
22754;SDS011;11544;42.020;23.094;2022-11-04T16:44:36;20.40;;;9.93;;
22754;SDS011;11544;42.020;23.094;2022-11-04T16:47:01;17.90;;;10.73;;
22754;SDS011;11544;42.020;23.094;2022-11-04T16:49:28;17.63;;;9.90;;
22754;SDS011;11544;42.020;23.094;2022-11-04T16:51:59;14.82;;;9.00;;
22754;SDS011;11544;42.020;23.094;2022-11-04T16:54:27;21.63;;;9.30;;
22754;SDS011;11544;42.020;23.094;2022-11-04T16:56:53;17.48;;;9.05;;
22754;SDS011;11544;42.020;23.094;2022-11-04T16:59:19;17.02;;;9.80;;
22754;SDS011;11544;42.020;23.094;2022-11-04T17:01:46;17.60;;;9.13;;
22754;SDS011;11544;42.020;23.094;2022-11-04T17:04:11;23.85;;;10.18;;
22754;SDS011;11544;42.020;23.094;2022-11-04T17:06:37;17.73;;;10.32;;
22754;SDS011;11544;42.020;23.094;2022-11-04T17:09:05;17.88;;;9.82;;
22754;SDS011;11544;42.020;23.094;2022-11-04T17:11:42;19.35;;;9.57;;
22754;SDS011;11544;42.020;23.094;2022-11-04T17:14:08;13.05;;;9.25;;
22754;SDS011;11544;42.020;23.094;2022-11-04T17:16:34;14.73;;;9.35;;
22754;SDS011;11544;42.020;23.094;2022-11-04T17:18:59;16.27;;;9.48;;
22754;SDS011;11544;42.020;23.094;2022-11-04T17:21:25;15.68;;;9.60;;
22754;SDS011;11544;42.020;23.094;2022-11-04T17:23:52;20.13;;;10.13;;
22754;SDS011;11544;42.020;23.094;2022-11-04T17:26:20;19.00;;;10.10;;
22754;SDS011;11544;42.020;23.094;2022-11-04T17:28:46;19.30;;;10.93;;
22754;SDS011;11544;42.020;23.094;2022-11-04T17:31:15;17.05;;;11.02;;